createdAt,value
2023-05-05T00:03:42.817Z,9.84
2023-05-05T00:08:46.535Z,9.64
2023-05-05T00:13:49.828Z,10.04
2023-05-05T00:18:52.937Z,9.98
2023-05-05T00:23:56.157Z,9.29
2023-05-05T00:28:59.259Z,9.20
2023-05-05T00:34:02.279Z,9.59
2023-05-05T00:39:05.281Z,9.74
2023-05-05T00:44:08.895Z,9.73
2023-05-05T00:49:12.563Z,9.72
2023-05-05T00:54:15.832Z,9.87
2023-05-05T00:59:19.042Z,9.64
2023-05-05T01:04:22.358Z,9.62
2023-05-05T01:09:32.400Z,9.59
2023-05-05T01:14:39.836Z,9.51
2023-05-05T01:19:58.098Z,9.37
2023-05-05T01:25:48.322Z,9.44
2023-05-05T01:31:03.414Z,9.25
2023-05-05T01:36:16.316Z,9.17
2023-05-05T01:41:34.708Z,9.34
2023-05-05T01:46:38.230Z,9.23
2023-05-05T01:51:42.416Z,9.33
2023-05-05T01:56:46.483Z,9.04
2023-05-05T02:01:50.722Z,8.99
2023-05-05T02:06:56.574Z,9.10
2023-05-05T02:12:02.454Z,8.99
2023-05-05T02:17:05.590Z,8.85
2023-05-05T02:22:08.907Z,8.86
2023-05-05T02:27:12.500Z,8.88
2023-05-05T02:32:20.843Z,8.86
2023-05-05T02:37:27.776Z,8.74
2023-05-05T02:42:41.856Z,8.93
2023-05-05T02:47:45.091Z,8.83
2023-05-05T02:52:48.438Z,8.93
2023-05-05T02:58:14.178Z,8.87
2023-05-05T03:03:44.934Z,8.70
2023-05-05T03:09:02.996Z,8.65
2023-05-05T03:14:10.807Z,8.85
2023-05-05T03:19:18.192Z,8.87
2023-05-05T03:24:21.663Z,8.96
2023-05-05T03:29:25.561Z,8.86
2023-05-05T03:34:28.674Z,8.83
2023-05-05T03:39:31.861Z,9.00
2023-05-05T03:44:36.848Z,8.81
2023-05-05T03:49:39.864Z,8.63
2023-05-05T03:54:43.259Z,8.91
2023-05-05T03:59:46.786Z,8.86
2023-05-05T04:04:49.786Z,9.02
2023-05-05T04:09:53.005Z,9.05
2023-05-05T04:14:56.108Z,8.68
2023-05-05T04:19:59.318Z,8.72
2023-05-05T04:25:02.679Z,8.72
2023-05-05T04:30:07.069Z,8.65
2023-05-05T04:35:10.296Z,8.65
2023-05-05T04:40:13.708Z,8.65
2023-05-05T04:45:16.807Z,8.66
2023-05-05T04:50:19.946Z,8.85
2023-05-05T04:55:23.061Z,8.86
2023-05-05T05:00:26.136Z,9.24
2023-05-05T05:05:29.252Z,9.21
2023-05-05T05:10:32.348Z,9.37
2023-05-05T05:15:38.430Z,9.78
2023-05-05T05:20:41.644Z,10.64
2023-05-05T05:25:44.756Z,11.42
2023-05-05T05:30:48.046Z,11.95
2023-05-05T05:35:51.072Z,12.12
2023-05-05T05:40:54.688Z,11.96
2023-05-05T05:45:57.678Z,12.53
2023-05-05T05:51:02.236Z,12.94
2023-05-05T05:56:06.141Z,12.61
2023-05-05T06:01:09.113Z,12.44
2023-05-05T06:06:12.181Z,12.93
2023-05-05T06:11:15.286Z,13.45
2023-05-05T06:16:18.401Z,14.22
2023-05-05T06:21:21.810Z,15.53
2023-05-05T06:26:26.350Z,16.06
2023-05-05T06:31:29.588Z,16.12
2023-05-05T06:36:32.849Z,17.49
2023-05-05T06:41:36.293Z,19.05
2023-05-05T06:46:39.529Z,19.82
2023-05-05T06:51:43.052Z,20.02
2023-05-05T06:56:46.958Z,20.17
2023-05-05T07:01:51.187Z,20.30
2023-05-05T07:06:55.547Z,20.81
2023-05-05T07:11:58.773Z,21.24
2023-05-05T07:17:01.942Z,21.68
2023-05-05T07:22:05.287Z,21.48
2023-05-05T07:27:08.721Z,21.16
2023-05-05T07:32:12.053Z,21.11
2023-05-05T07:37:15.311Z,20.96
2023-05-05T07:42:18.526Z,20.93
2023-05-05T07:47:21.817Z,20.32
2023-05-05T07:52:43.703Z,19.91
2023-05-05T07:57:49.852Z,19.57
2023-05-05T08:02:53.119Z,19.56
2023-05-05T08:07:56.285Z,19.63
2023-05-05T08:12:59.436Z,19.22
2023-05-05T08:18:02.662Z,19.46
2023-05-05T08:23:06.432Z,19.26
2023-05-05T08:28:09.639Z,18.64
2023-05-05T08:33:13.012Z,18.30
2023-05-05T08:38:16.473Z,18.61
2023-05-05T08:43:22.925Z,18.52
2023-05-05T08:48:28.565Z,17.23
2023-05-05T08:53:34.205Z,15.20
2023-05-05T08:58:37.807Z,13.72
2023-05-05T09:03:41.141Z,13.30
2023-05-05T09:08:44.749Z,13.03
2023-05-05T09:19:09.101Z,12.60
2023-05-05T09:24:13.471Z,12.71
2023-05-05T09:29:23.429Z,12.81
2023-05-05T09:34:26.967Z,12.97
2023-05-05T09:39:30.038Z,13.14
2023-05-05T09:44:35.289Z,13.21
2023-05-05T09:49:39.020Z,13.11
2023-05-05T09:54:43.461Z,13.27
2023-05-05T10:00:16.262Z,13.23
2023-05-05T10:05:19.614Z,13.47
2023-05-05T10:10:22.871Z,13.64
2023-05-05T10:15:26.090Z,13.92
2023-05-05T10:20:33.375Z,13.69
2023-05-05T10:25:47.456Z,13.61
2023-05-05T10:30:54.579Z,13.51
2023-05-05T10:36:05.563Z,13.43
2023-05-05T10:41:10.496Z,13.62
2023-05-05T10:46:13.779Z,13.75
2023-05-05T10:51:53.086Z,13.92
2023-05-05T10:56:58.252Z,13.82
2023-05-05T11:02:01.456Z,13.76
2023-05-05T11:07:14.722Z,13.72
2023-05-05T11:12:18.224Z,13.74
2023-05-05T11:17:47.280Z,13.72
2023-05-05T11:23:02.749Z,13.45
2023-05-05T11:28:08.853Z,13.49
2023-05-05T11:33:30.710Z,14.00
2023-05-05T11:38:36.637Z,14.11
2023-05-05T11:43:41.891Z,14.02
2023-05-05T11:48:49.257Z,13.83
2023-05-05T11:53:52.821Z,13.92
2023-05-05T11:59:09.866Z,13.99
2023-05-05T12:04:16.485Z,14.17
2023-05-05T12:09:21.291Z,14.33
2023-05-05T12:14:25.892Z,14.14
2023-05-05T12:19:33.289Z,14.26
2023-05-05T12:24:36.464Z,14.46
2023-05-05T12:29:39.568Z,14.27
2023-05-05T12:34:43.402Z,13.90
2023-05-05T12:39:46.509Z,14.01
2023-05-05T12:44:49.925Z,14.37
2023-05-05T12:49:53.652Z,14.43
2023-05-05T12:55:00.248Z,14.32
2023-05-05T13:00:15.646Z,14.23
2023-05-05T13:05:33.182Z,14.30
2023-05-05T13:10:36.616Z,14.35
2023-05-05T13:15:39.709Z,14.44
2023-05-05T13:20:42.812Z,14.54
2023-05-05T13:25:46.008Z,14.56
2023-05-05T13:30:49.145Z,14.52
2023-05-05T13:35:52.347Z,14.52
2023-05-05T13:40:55.560Z,14.43
2023-05-05T13:46:08.639Z,14.53
2023-05-05T13:51:16.532Z,14.59
2023-05-05T13:56:19.949Z,14.57
2023-05-05T14:01:23.112Z,14.53
2023-05-05T14:06:26.558Z,14.47
2023-05-05T14:11:31.725Z,14.57
2023-05-05T14:16:35.023Z,14.59
2023-05-05T14:21:38.344Z,14.40
2023-05-05T14:26:41.363Z,14.15
2023-05-05T14:31:44.366Z,14.13
2023-05-05T14:36:47.822Z,14.08
2023-05-05T14:41:51.195Z,13.91
2023-05-05T14:46:54.296Z,13.87
2023-05-05T14:51:57.421Z,13.82
2023-05-05T14:57:00.644Z,13.74
2023-05-05T15:02:03.836Z,13.91
2023-05-05T15:07:06.954Z,14.00
2023-05-05T15:12:09.942Z,13.99
2023-05-05T15:17:13.160Z,14.09
2023-05-05T15:22:16.158Z,14.04
2023-05-05T15:27:19.172Z,13.86
2023-05-05T15:32:22.340Z,13.76
2023-05-05T15:37:25.387Z,13.74
2023-05-05T15:42:28.595Z,13.82
2023-05-05T15:47:31.683Z,13.87
2023-05-05T15:52:35.117Z,13.92
2023-05-05T15:57:39.978Z,13.81
2023-05-05T16:02:43.229Z,13.67
2023-05-05T16:07:46.723Z,13.49
2023-05-05T16:12:50.253Z,13.21
2023-05-05T16:17:53.375Z,13.00
2023-05-05T16:22:57.474Z,12.90
2023-05-05T16:28:01.804Z,12.79
2023-05-05T16:33:05.040Z,12.67
2023-05-05T16:38:08.010Z,12.55
2023-05-05T16:43:11.138Z,12.42
2023-05-05T16:48:14.858Z,12.22
2023-05-05T16:53:18.059Z,12.05
2023-05-05T16:58:22.583Z,11.94
2023-05-05T17:03:25.717Z,11.76
2023-05-05T17:08:28.682Z,11.58
2023-05-05T17:13:31.826Z,11.43
2023-05-05T17:18:34.945Z,11.29
2023-05-05T17:23:37.959Z,11.12
2023-05-05T17:28:41.148Z,10.97
2023-05-05T17:33:44.164Z,10.79
2023-05-05T17:38:47.274Z,10.65
2023-05-05T17:43:50.372Z,10.52
2023-05-05T17:48:53.848Z,10.38
2023-05-05T17:53:57.103Z,10.24
2023-05-05T17:59:00.894Z,10.12
2023-05-05T18:04:04.446Z,9.95
2023-05-05T18:09:09.207Z,9.81
2023-05-05T18:14:14.146Z,9.66
2023-05-05T18:19:17.255Z,9.52
2023-05-05T18:24:20.771Z,9.33
2023-05-05T18:29:23.992Z,9.17
2023-05-05T18:34:27.097Z,9.03
2023-05-05T18:39:30.521Z,8.92
2023-05-05T18:44:34.948Z,8.82
2023-05-05T18:49:38.169Z,8.72
2023-05-05T18:54:41.285Z,8.62
2023-05-05T18:59:44.283Z,8.49
2023-05-05T19:04:47.208Z,8.33
2023-05-05T19:09:50.900Z,8.18
2023-05-05T19:14:53.808Z,8.03
2023-05-05T19:19:56.918Z,7.88
2023-05-05T19:24:59.921Z,7.74
2023-05-05T19:30:05.078Z,7.62
2023-05-05T19:35:10.700Z,7.51
2023-05-05T19:40:14.156Z,7.39
2023-05-05T19:45:17.792Z,7.29
2023-05-05T19:50:21.507Z,7.18
2023-05-05T19:55:24.721Z,7.04
2023-05-05T20:00:27.820Z,6.90
2023-05-05T20:05:31.030Z,6.77
2023-05-05T20:10:34.754Z,6.64
2023-05-05T20:15:37.740Z,6.52
2023-05-05T20:20:40.872Z,6.42
2023-05-05T20:25:43.894Z,6.30
2023-05-05T20:30:46.885Z,6.18
2023-05-05T20:35:49.790Z,6.07
2023-05-05T20:40:53.008Z,5.99
2023-05-05T20:45:56.316Z,5.91
2023-05-05T20:51:03.026Z,5.83
2023-05-05T20:56:08.002Z,5.69
2023-05-05T21:01:11.950Z,5.56
2023-05-05T21:06:14.996Z,5.43
2023-05-05T21:11:18.009Z,5.31
2023-05-05T21:16:21.097Z,5.18
2023-05-05T21:21:24.727Z,5.05
2023-05-05T21:26:27.944Z,4.91
2023-05-05T21:31:31.177Z,4.82
2023-05-05T21:36:34.566Z,4.76
2023-05-05T21:41:37.689Z,4.69
2023-05-05T21:46:40.860Z,4.77
2023-05-05T21:51:45.026Z,5.56
2023-05-05T21:56:48.134Z,5.76
2023-05-05T22:01:51.353Z,5.22
2023-05-05T22:06:54.452Z,4.88
2023-05-05T22:11:57.757Z,4.68
2023-05-05T22:17:00.873Z,4.53
2023-05-05T22:22:04.188Z,4.84
2023-05-05T22:27:07.327Z,5.03
2023-05-05T22:32:10.508Z,4.64
2023-05-05T22:37:14.234Z,4.47
2023-05-05T22:42:17.343Z,5.08
2023-05-05T22:47:20.503Z,5.31
2023-05-05T22:52:25.815Z,4.80
2023-05-05T22:57:28.824Z,4.45
2023-05-05T23:02:32.123Z,4.22
2023-05-05T23:07:35.340Z,4.07
2023-05-05T23:12:38.561Z,3.97
2023-05-05T23:17:41.593Z,3.89
2023-05-05T23:22:44.664Z,3.81
2023-05-05T23:27:48.191Z,3.69
2023-05-05T23:32:51.227Z,3.76
2023-05-05T23:37:54.299Z,4.82
2023-05-05T23:42:57.310Z,4.51
2023-05-05T23:48:00.560Z,4.01
2023-05-05T23:53:03.622Z,3.71
2023-05-05T23:58:06.735Z,3.56
